createdAt,value
2022-08-20T03:59:03.744Z,5.03
2022-08-20T04:37:19.382Z,5.47
2022-08-20T04:40:14.511Z,5.75
2022-08-20T04:42:45.274Z,5.47
2022-08-20T04:45:17.354Z,6.30
2022-08-20T04:50:47.685Z,5.53
2022-08-20T07:02:53.857Z,6.65
2022-08-20T07:05:21.107Z,6.82
2022-08-20T07:07:49.717Z,6.05
2022-08-20T07:10:17.586Z,5.38
2022-08-20T07:12:44.815Z,5.40
2022-08-20T07:15:12.262Z,5.85
2022-08-20T07:17:44.525Z,6.35
2022-08-20T07:20:13.356Z,7.05
2022-08-20T07:22:47.941Z,5.85
2022-08-20T07:25:17.899Z,6.10
2022-08-20T07:27:47.454Z,5.80
2022-08-20T07:30:55.801Z,6.32
2022-08-20T07:33:24.896Z,5.43
2022-08-20T08:07:05.557Z,6.10
2022-08-20T08:09:44.590Z,5.57
2022-08-20T08:12:18.496Z,6.20
2022-08-20T08:15:00.114Z,6.43
2022-08-20T08:17:28.253Z,5.90
2022-08-20T08:20:00.199Z,6.72
2022-08-20T08:22:31.957Z,6.45
2022-08-20T08:25:02.396Z,6.03
2022-08-20T08:54:17.920Z,6.65
2022-08-20T10:02:53.282Z,6.00
2022-08-20T10:05:20.922Z,5.82
2022-08-20T10:07:54.975Z,6.20
2022-08-20T10:10:36.296Z,5.10
2022-08-20T10:13:12.688Z,5.28
2022-08-20T10:22:21.390Z,5.75
2022-08-20T11:51:21.132Z,4.45
2022-08-20T11:53:49.605Z,5.35
2022-08-20T11:56:28.446Z,5.63
2022-08-20T11:59:03.944Z,5.18
2022-08-20T12:01:36.771Z,5.38
2022-08-20T12:04:07.428Z,6.93
2022-08-20T12:16:05.874Z,5.07
2022-08-20T12:18:33.680Z,5.40
2022-08-20T12:21:02.748Z,6.15
2022-08-20T12:23:31.046Z,5.03
2022-08-20T12:25:59.296Z,4.78
2022-08-20T12:28:26.555Z,4.75
2022-08-20T12:31:02.631Z,4.63
2022-08-20T12:33:29.736Z,4.90
2022-08-20T12:35:57.541Z,4.10
2022-08-20T12:38:27.885Z,3.60
2022-08-20T12:47:37.409Z,3.85
2022-08-20T12:50:18.964Z,3.55
2022-08-20T12:52:46.182Z,3.90
2022-08-20T12:55:17.623Z,5.03
2022-08-20T12:57:53.219Z,3.47
2022-08-20T13:03:23.070Z,4.63
2022-08-20T13:05:52.466Z,4.18
2022-08-20T13:08:30.012Z,3.55
2022-08-20T13:10:59.866Z,3.70
2022-08-20T13:13:28.776Z,3.63
2022-08-20T13:15:58.297Z,4.20
2022-08-20T13:49:32.762Z,3.75
2022-08-20T13:52:09.656Z,3.78
2022-08-20T13:54:54.331Z,3.53
2022-08-20T13:57:34.134Z,3.40
2022-08-20T14:00:12.318Z,3.50
2022-08-20T14:02:40.921Z,4.35
2022-08-20T14:05:12.193Z,4.85
2022-08-20T14:07:44.688Z,3.83
2022-08-20T14:10:32.415Z,4.07
2022-08-20T14:13:01.159Z,3.42
2022-08-20T14:15:31.292Z,4.68
2022-08-20T14:18:06.508Z,3.55
2022-08-20T14:20:34.239Z,4.85
2022-08-20T14:23:09.497Z,3.70
2022-08-20T14:25:49.124Z,3.90
2022-08-20T14:31:10.886Z,3.75
2022-08-20T14:33:43.927Z,4.50
2022-08-20T14:36:13.973Z,4.75
2022-08-20T14:38:48.958Z,3.55
2022-08-20T14:41:29.845Z,3.83
2022-08-20T14:47:21.378Z,3.88
2022-08-20T15:05:46.838Z,4.00
